createdAt,value
2018-12-11T00:02:08.934Z,101100.63
2018-12-11T00:04:37.334Z,101100.31
2018-12-11T00:07:05.676Z,101107.55
2018-12-11T00:09:34.006Z,101117.43
2018-12-11T00:12:02.395Z,101115.95
2018-12-11T00:14:30.771Z,101116.53
2018-12-11T00:16:59.150Z,101117.28
2018-12-11T00:19:27.982Z,101119.19
2018-12-11T00:21:56.319Z,101121.58
2018-12-11T00:24:24.744Z,101115.48
2018-12-11T00:26:53.097Z,101114.63
2018-12-11T00:29:21.373Z,101116.30
2018-12-11T00:31:49.669Z,101121.65
2018-12-11T00:34:18.058Z,101120.78
2018-12-11T00:36:46.410Z,101129.40
2018-12-11T00:39:14.702Z,101127.89
2018-12-11T00:41:43.475Z,101130.03
2018-12-11T00:44:11.749Z,101121.95
2018-12-11T00:46:40.255Z,101130.61
2018-12-11T00:49:08.614Z,101127.69
2018-12-11T00:51:36.964Z,101135.34
2018-12-11T00:54:05.266Z,101125.96
2018-12-11T00:56:33.603Z,101131.30
2018-12-11T00:59:01.918Z,101126.85
2018-12-11T01:01:30.229Z,101119.40
2018-12-11T01:07:19.309Z,101135.48
2018-12-11T01:09:53.210Z,101135.39
2018-12-11T02:32:42.570Z,101182.23
2018-12-11T02:35:10.889Z,101195.30
2018-12-11T02:37:39.194Z,101189.71
2018-12-11T02:40:07.624Z,101191.02
2018-12-11T02:42:36.039Z,101190.80
2018-12-11T02:45:05.442Z,101195.63
2018-12-11T02:47:33.821Z,101189.52
2018-12-11T02:50:02.181Z,101202.48
2018-12-11T02:52:30.507Z,101189.05
2018-12-11T03:09:30.196Z,101204.91
2018-12-11T03:11:58.560Z,101207.22
2018-12-11T03:14:26.885Z,101204.66
2018-12-11T03:16:55.214Z,101211.57
2018-12-11T03:22:33.333Z,101207.39
2018-12-11T03:25:02.136Z,101219.38
2018-12-11T03:27:31.272Z,101213.14
2018-12-11T03:29:59.627Z,101215.94
2018-12-11T03:32:27.967Z,101220.25
2018-12-11T03:34:56.384Z,101217.64
2018-12-11T03:37:24.743Z,101221.66
2018-12-11T03:39:53.120Z,101224.20
2018-12-11T03:42:21.450Z,101226.08
2018-12-11T03:44:50.176Z,101228.80
2018-12-11T03:47:18.526Z,101228.75
2018-12-11T03:49:46.948Z,101237.48
2018-12-11T04:01:08.511Z,101239.25
2018-12-11T04:03:36.861Z,101244.63
2018-12-11T04:06:05.187Z,101240.20
2018-12-11T04:08:33.503Z,101239.62
2018-12-11T04:11:02.303Z,101238.97
2018-12-11T04:13:30.760Z,101246.19
2018-12-11T04:15:59.159Z,101248.91
2018-12-11T04:18:27.475Z,101243.98
2018-12-11T04:20:55.794Z,101252.54
2018-12-11T04:23:24.490Z,101256.46
2018-12-11T04:25:52.868Z,101250.13
2018-12-11T04:28:21.206Z,101255.83
2018-12-11T04:30:49.661Z,101260.75
2018-12-11T04:33:18.001Z,101257.48
2018-12-11T04:35:46.348Z,101257.25
2018-12-11T04:38:14.719Z,101255.91
2018-12-11T04:40:43.126Z,101260.05
2018-12-11T04:43:11.480Z,101267.87
2018-12-11T04:45:40.035Z,101267.74
2018-12-11T04:48:08.345Z,101277.05
2018-12-11T04:50:36.661Z,101271.55
2018-12-11T04:53:05.082Z,101273.73
2018-12-11T04:55:33.425Z,101281.33
2018-12-11T04:58:01.710Z,101276.31
2018-12-11T05:00:30.022Z,101280.24
2018-12-11T05:02:58.329Z,101282.94
2018-12-11T05:05:26.629Z,101283.78
2018-12-11T05:07:55.261Z,101288.55
2018-12-11T05:13:20.260Z,101300.91
2018-12-11T05:15:48.550Z,101298.09
2018-12-11T05:18:16.882Z,101297.23
2018-12-11T05:20:45.268Z,101302.38
2018-12-11T05:23:13.584Z,101309.58
2018-12-11T05:25:41.903Z,101316.80
2018-12-11T05:28:10.805Z,101312.27
2018-12-11T05:30:39.242Z,101325.84
2018-12-11T05:33:07.644Z,101315.68
2018-12-11T05:35:36.038Z,101317.25
2018-12-11T05:38:04.355Z,101327.51
2018-12-11T05:40:32.670Z,101321.41
2018-12-11T05:43:01.093Z,101329.85
2018-12-11T05:46:58.511Z,101322.66
2018-12-11T05:49:27.109Z,101330.85
2018-12-11T05:51:55.452Z,101324.73
2018-12-11T05:54:23.772Z,101326.08
2018-12-11T05:56:52.109Z,101324.86
2018-12-11T05:59:20.413Z,101329.63
2018-12-11T06:01:48.723Z,101327.43
2018-12-11T06:04:17.110Z,101331.70
2018-12-11T06:06:45.475Z,101341.98
2018-12-11T06:09:13.788Z,101341.13
2018-12-11T06:11:42.654Z,101345.28
2018-12-11T06:14:11.703Z,101347.97
2018-12-11T06:16:40.096Z,101353.71
2018-12-11T06:19:08.473Z,101362.77
2018-12-11T06:21:36.774Z,101359.70
2018-12-11T06:24:05.153Z,101358.97
2018-12-11T06:26:33.532Z,101362.52
2018-12-11T06:29:01.913Z,101358.36
2018-12-11T06:31:30.218Z,101366.30
2018-12-11T06:33:58.734Z,101365.58
2018-12-11T06:38:02.577Z,101370.44
2018-12-11T06:40:30.978Z,101369.97
2018-12-11T06:42:59.369Z,101375.72
2018-12-11T06:45:27.691Z,101379.14
2018-12-11T06:47:56.070Z,101384.89
2018-12-11T06:50:26.225Z,101387.20
2018-12-11T06:52:54.555Z,101393.56
2018-12-11T06:55:22.949Z,101394.41
2018-12-11T06:57:51.296Z,101393.69
2018-12-11T07:00:19.676Z,101394.18
2018-12-11T07:02:48.021Z,101401.38
2018-12-11T07:05:16.328Z,101410.77
2018-12-11T07:07:44.621Z,101412.75
2018-12-11T07:10:13.094Z,101422.52
2018-12-11T07:12:41.397Z,101418.38
2018-12-11T07:15:09.748Z,101422.15
2018-12-11T07:17:38.250Z,101422.25
2018-12-11T07:20:07.687Z,101421.67
2018-12-11T07:22:36.115Z,101429.48
2018-12-11T07:25:04.611Z,101422.41
2018-12-11T07:27:32.993Z,101430.34
2018-12-11T07:30:01.305Z,101425.33
2018-12-11T07:32:29.736Z,101430.58
2018-12-11T07:34:58.059Z,101427.89
2018-12-11T07:37:26.468Z,101430.37
2018-12-11T07:39:54.978Z,101429.16
2018-12-11T07:42:23.431Z,101435.76
2018-12-11T07:44:52.973Z,101438.94
2018-12-11T07:47:21.342Z,101439.19
2018-12-11T07:49:49.653Z,101447.16
2018-12-11T07:52:17.987Z,101447.28
2018-12-11T07:54:46.294Z,101448.75
2018-12-11T07:57:14.569Z,101449.82
2018-12-11T07:59:42.893Z,101446.50
2018-12-11T08:02:11.757Z,101455.58
2018-12-11T08:04:40.098Z,101448.36
2018-12-11T08:07:08.379Z,101452.41
2018-12-11T08:09:36.731Z,101454.07
2018-12-11T08:12:08.313Z,101455.80
2018-12-11T08:14:35.447Z,101455.69
2018-12-11T08:17:03.779Z,101459.73
2018-12-11T08:19:32.101Z,101464.25
2018-12-11T08:22:00.420Z,101466.20
2018-12-11T08:24:28.817Z,101478.70
2018-12-11T08:26:57.258Z,101476.50
2018-12-11T08:29:25.606Z,101482.39
2018-12-11T08:31:53.988Z,101474.66
2018-12-11T08:34:22.297Z,101481.74
2018-12-11T08:36:50.606Z,101479.67
2018-12-11T08:39:18.922Z,101488.38
2018-12-11T08:41:47.243Z,101492.44
2018-12-11T08:44:15.568Z,101495.13
2018-12-11T08:46:44.068Z,101501.12
2018-12-11T08:49:12.402Z,101508.59
2018-12-11T08:51:40.732Z,101516.67
2018-12-11T08:54:09.105Z,101516.80
2018-12-11T08:56:37.447Z,101524.75
2018-12-11T08:59:06.775Z,101522.05
2018-12-11T09:01:35.391Z,101516.25
2018-12-11T09:04:03.839Z,101518.35
2018-12-11T09:06:32.147Z,101517.06
2018-12-11T09:09:00.694Z,101530.07
2018-12-11T09:11:29.043Z,101532.17
2018-12-11T09:13:57.365Z,101520.27
2018-12-11T09:16:25.725Z,101526.94
2018-12-11T09:18:54.209Z,101525.23
2018-12-11T09:21:22.579Z,101529.20
2018-12-11T09:23:50.963Z,101529.75
2018-12-11T09:26:19.297Z,101534.89
2018-12-11T09:28:47.650Z,101534.47
2018-12-11T09:31:16.649Z,101534.35
2018-12-11T09:33:44.985Z,101534.35
2018-12-11T09:36:13.295Z,101531.75
2018-12-11T09:38:41.669Z,101542.42
2018-12-11T09:41:09.992Z,101533.46
2018-12-11T09:43:38.326Z,101538.42
2018-12-11T09:46:06.672Z,101537.42
2018-12-11T09:48:34.968Z,101528.60
2018-12-11T09:51:03.354Z,101537.03
2018-12-11T09:53:31.881Z,101536.17
2018-12-11T09:56:00.210Z,101540.59
2018-12-11T09:58:28.537Z,101541.58
2018-12-11T10:00:56.856Z,101548.10
2018-12-11T10:03:25.134Z,101549.05
2018-12-11T10:05:53.424Z,101551.38
2018-12-11T10:08:21.789Z,101546.58
2018-12-11T10:10:50.082Z,101554.52
2018-12-11T10:13:18.398Z,101560.97
2018-12-11T10:15:46.941Z,101559.92
2018-12-11T10:18:15.318Z,101561.77
2018-12-11T10:20:43.680Z,101553.40
2018-12-11T10:23:12.600Z,101555.58
2018-12-11T10:25:40.950Z,101555.43
2018-12-11T10:28:09.232Z,101552.31
2018-12-11T10:30:43.062Z,101544.38
2018-12-11T10:33:11.357Z,101550.03
2018-12-11T10:35:39.634Z,101549.73
2018-12-11T10:38:08.061Z,101547.83
2018-12-11T10:40:36.421Z,101552.34
2018-12-11T10:43:04.803Z,101553.91
2018-12-11T10:45:33.157Z,101547.06
2018-12-11T10:48:01.471Z,101543.77
2018-12-11T10:50:29.787Z,101548.41
2018-12-11T10:52:58.146Z,101545.88
2018-12-11T10:55:26.507Z,101548.96
2018-12-11T10:57:54.845Z,101550.35
2018-12-11T11:00:28.938Z,101550.48
2018-12-11T11:03:02.836Z,101555.97
2018-12-11T11:05:31.246Z,101555.87
2018-12-11T11:07:59.599Z,101555.58
2018-12-11T11:10:28.049Z,101551.38
2018-12-11T11:12:56.454Z,101558.51
2018-12-11T11:15:24.805Z,101560.13
2018-12-11T11:17:53.191Z,101559.41
2018-12-11T11:20:21.770Z,101571.48
2018-12-11T11:22:50.171Z,101568.38
2018-12-11T11:25:18.537Z,101564.63
2018-12-11T11:27:46.882Z,101578.51
2018-12-11T11:30:15.314Z,101564.92
2018-12-11T11:32:43.706Z,101574.61
2018-12-11T11:35:12.061Z,101573.89
2018-12-11T11:37:40.360Z,101572.19
2018-12-11T11:40:08.759Z,101578.23
2018-12-11T11:42:37.362Z,101582.66
2018-12-11T11:45:06.774Z,101574.27
2018-12-11T11:47:35.089Z,101581.19
2018-12-11T11:50:06.130Z,101580.66
2018-12-11T11:52:34.491Z,101591.62
2018-12-11T11:55:02.839Z,101595.34
2018-12-11T11:57:31.233Z,101605.58
2018-12-11T11:59:59.561Z,101605.90
2018-12-11T12:02:33.195Z,101603.47
2018-12-11T12:04:58.300Z,101607.07
2018-12-11T12:07:26.636Z,101609.50
2018-12-11T12:09:54.957Z,101612.02
2018-12-11T12:12:23.329Z,101616.06
2018-12-11T12:14:51.692Z,101613.01
2018-12-11T12:17:19.993Z,101611.89
2018-12-11T12:19:48.310Z,101615.55
2018-12-11T12:22:16.659Z,101622.03
2018-12-11T12:24:44.977Z,101618.11
2018-12-11T12:27:13.720Z,101624.28
2018-12-11T12:29:42.806Z,101625.52
2018-12-11T12:32:11.130Z,101623.28
2018-12-11T12:34:39.482Z,101631.02
2018-12-11T12:37:07.784Z,101630.14
2018-12-11T12:39:36.090Z,101631.54
2018-12-11T12:42:04.476Z,101633.09
2018-12-11T12:44:32.779Z,101632.03
2018-12-11T12:47:01.082Z,101642.42
2018-12-11T12:49:29.597Z,101638.14
2018-12-11T12:51:57.916Z,101645.09
2018-12-11T12:54:26.255Z,101635.67
2018-12-11T12:56:54.631Z,101640.88
2018-12-11T12:59:22.918Z,101638.05
2018-12-11T13:01:51.226Z,101640.19
2018-12-11T13:04:19.562Z,101635.61
2018-12-11T13:06:47.912Z,101643.58
2018-12-11T13:09:16.216Z,101638.97
2018-12-11T13:11:44.738Z,101640.41
2018-12-11T13:14:13.077Z,101644.64
2018-12-11T13:16:41.379Z,101648.49
2018-12-11T13:19:09.737Z,101644.50
2018-12-11T13:21:38.074Z,101648.39
2018-12-11T13:24:06.376Z,101656.87
2018-12-11T13:26:34.760Z,101655.52
2018-12-11T13:29:03.043Z,101654.47
2018-12-11T13:31:31.367Z,101654.47
2018-12-11T13:34:00.070Z,101662.80
2018-12-11T13:36:32.035Z,101667.32
2018-12-11T13:38:58.777Z,101667.58
2018-12-11T13:41:27.095Z,101676.91
2018-12-11T13:43:55.626Z,101675.55
2018-12-11T13:46:23.978Z,101678.22
2018-12-11T13:48:52.429Z,101681.39
2018-12-11T13:51:20.738Z,101684.15
2018-12-11T13:53:49.049Z,101686.46
2018-12-11T13:56:17.526Z,101683.16
2018-12-11T13:58:45.800Z,101687.37
2018-12-11T14:01:14.132Z,101689.10
2018-12-11T14:03:42.494Z,101692.91
2018-12-11T14:06:10.845Z,101706.45
2018-12-11T14:08:39.194Z,101707.34
2018-12-11T14:11:07.594Z,101710.19
2018-12-11T14:13:35.943Z,101705.39
2018-12-11T14:16:04.334Z,101708.84
2018-12-11T14:18:32.724Z,101712.91
2018-12-11T14:21:01.101Z,101720.38
2018-12-11T14:23:29.420Z,101717.55
2018-12-11T14:25:57.798Z,101726.13
2018-12-11T14:28:26.188Z,101723.09
2018-12-11T14:30:54.555Z,101720.38
2018-12-11T14:33:22.867Z,101714.23
2018-12-11T14:35:51.162Z,101723.63
2018-12-11T14:38:19.781Z,101724.49
2018-12-11T14:40:51.998Z,101724.95
2018-12-11T14:43:20.306Z,101726.22
2018-12-11T14:45:48.608Z,101736.41
2018-12-11T14:48:16.954Z,101737.05
2018-12-11T14:50:45.287Z,101740.69
2018-12-11T14:53:13.596Z,101746.33
2018-12-11T14:55:41.892Z,101745.41
2018-12-11T14:58:10.184Z,101748.45
2018-12-11T15:00:38.540Z,101744.52
2018-12-11T15:03:06.996Z,101740.97
2018-12-11T15:05:35.407Z,101742.70
2018-12-11T15:08:03.714Z,101738.16
2018-12-11T15:10:32.109Z,101744.89
2018-12-11T15:13:00.491Z,101751.39
2018-12-11T15:15:28.804Z,101750.19
2018-12-11T15:17:57.196Z,101747.81
2018-12-11T15:20:25.503Z,101745.87
2018-12-11T15:22:53.821Z,101746.33
2018-12-11T15:25:22.268Z,101744.66
2018-12-11T15:27:50.571Z,101748.11
2018-12-11T15:30:18.931Z,101742.96
2018-12-11T15:32:47.299Z,101753.38
2018-12-11T15:35:15.660Z,101746.52
2018-12-11T15:37:44.013Z,101751.79
2018-12-11T15:40:12.997Z,101755.71
2018-12-11T15:42:41.307Z,101744.44
2018-12-11T15:45:09.738Z,101747.74
2018-12-11T15:47:38.154Z,101748.85
2018-12-11T15:50:07.733Z,101748.36
2018-12-11T15:52:36.055Z,101738.67
2018-12-11T15:55:05.712Z,101739.41
2018-12-11T15:57:34.199Z,101744.77
2018-12-11T16:00:02.775Z,101746.48
2018-12-11T16:02:31.131Z,101750.41
2018-12-11T16:04:59.438Z,101761.84
2018-12-11T16:07:27.757Z,101753.63
2018-12-11T16:09:56.257Z,101752.03
2018-12-11T16:12:24.544Z,101755.59
2018-12-11T16:14:52.883Z,101761.69
2018-12-11T16:17:21.221Z,101750.69
2018-12-11T16:19:49.598Z,101757.44
2018-12-11T16:22:17.911Z,101762.45
2018-12-11T16:24:47.461Z,101768.47
2018-12-11T16:27:16.391Z,101763.81
2018-12-11T16:29:44.698Z,101771.16
2018-12-11T16:32:13.294Z,101771.90
2018-12-11T16:34:41.577Z,101765.28
2018-12-11T16:37:10.777Z,101775.33
2018-12-11T16:39:39.137Z,101768.83
2018-12-11T16:42:07.460Z,101776.80
2018-12-11T16:44:35.794Z,101772.87
2018-12-11T16:47:04.446Z,101785.27
2018-12-11T16:49:32.778Z,101787.35
2018-12-11T16:52:01.050Z,101789.43
2018-12-11T16:54:29.880Z,101787.23
2018-12-11T16:56:58.197Z,101787.22
2018-12-11T16:59:26.572Z,101795.64
2018-12-11T17:01:54.887Z,101796.13
2018-12-11T17:04:23.253Z,101792.00
2018-12-11T17:06:51.639Z,101803.58
2018-12-11T17:09:19.974Z,101797.77
2018-12-11T17:11:48.247Z,101800.09
2018-12-11T17:14:16.532Z,101805.48
2018-12-11T17:16:45.024Z,101812.11
2018-12-11T17:19:13.384Z,101816.52
2018-12-11T17:21:46.954Z,101825.34
2018-12-11T17:24:12.037Z,101823.14
2018-12-11T17:26:40.366Z,101828.48
2018-12-11T17:29:08.678Z,101830.37
2018-12-11T17:31:37.019Z,101834.92
2018-12-11T17:34:05.352Z,101840.91
2018-12-11T17:36:33.672Z,101841.52
2018-12-11T17:39:02.191Z,101849.25
2018-12-11T17:41:30.933Z,101852.49
2018-12-11T17:43:59.243Z,101857.14
2018-12-11T17:46:27.615Z,101857.23
2018-12-11T17:48:55.952Z,101864.94
2018-12-11T17:51:24.262Z,101862.38
2018-12-11T17:53:52.612Z,101860.31
2018-12-11T17:56:20.926Z,101865.33
2018-12-11T17:58:49.250Z,101871.58
2018-12-11T18:01:17.918Z,101870.11
2018-12-11T18:03:46.250Z,101881.13
2018-12-11T18:06:14.573Z,101885.56
2018-12-11T18:08:42.893Z,101886.66
2018-12-11T18:11:11.197Z,101889.28
2018-12-11T18:13:39.525Z,101894.17
2018-12-11T18:16:08.010Z,101892.78
2018-12-11T18:18:36.342Z,101899.91
2018-12-11T18:21:04.798Z,101900.63
2018-12-11T18:23:33.348Z,101898.91
2018-12-11T18:26:01.695Z,101902.87
2018-12-11T18:28:30.103Z,101906.55
2018-12-11T18:30:58.473Z,101905.90
2018-12-11T18:33:26.838Z,101907.55
2018-12-11T18:35:55.198Z,101905.45
2018-12-11T18:38:23.556Z,101909.05
2018-12-11T18:40:52.148Z,101903.55
2018-12-11T18:43:20.865Z,101914.77
2018-12-11T18:45:49.296Z,101915.63
2018-12-11T18:48:17.630Z,101914.84
2018-12-11T18:50:45.961Z,101917.77
2018-12-11T18:53:14.365Z,101913.64
2018-12-11T18:55:42.711Z,101915.02
2018-12-11T18:58:11.080Z,101916.80
2018-12-11T19:00:39.494Z,101915.76
2018-12-11T19:03:07.945Z,101920.48
2018-12-11T19:05:36.325Z,101916.94
2018-12-11T19:08:05.103Z,101919.31
2018-12-11T19:10:33.420Z,101919.17
2018-12-11T19:13:01.858Z,101920.64
2018-12-11T19:15:30.202Z,101921.72
2018-12-11T19:17:58.616Z,101924.25
2018-12-11T19:20:26.958Z,101925.57
2018-12-11T19:23:00.012Z,101927.01
2018-12-11T19:25:28.357Z,101921.76
2018-12-11T19:27:56.706Z,101924.74
2018-12-11T19:30:25.283Z,101921.79
2018-12-11T19:32:53.640Z,101925.84
2018-12-11T19:35:21.944Z,101921.95
2018-12-11T19:37:50.805Z,101928.09
2018-12-11T19:40:19.113Z,101926.81
2018-12-11T19:42:47.749Z,101930.41
2018-12-11T19:45:16.734Z,101924.72
2018-12-11T19:47:45.086Z,101928.61
2018-12-11T19:50:13.483Z,101929.21
2018-12-11T19:52:42.083Z,101935.34
2018-12-11T19:55:10.460Z,101931.53
2018-12-11T19:57:38.870Z,101937.06
2018-12-11T20:00:09.405Z,101936.02
2018-12-11T20:02:37.780Z,101945.00
2018-12-11T20:05:07.374Z,101947.91
2018-12-11T20:07:35.934Z,101941.02
2018-12-11T20:10:11.909Z,101940.34
2018-12-11T20:12:40.587Z,101948.87
2018-12-11T20:15:09.115Z,101943.28
2018-12-11T20:17:37.447Z,101945.82
2018-12-11T20:20:07.106Z,101954.61
2018-12-11T20:22:35.407Z,101952.63
2018-12-11T20:25:03.826Z,101949.16
2018-12-11T20:27:32.307Z,101959.48
2018-12-11T20:30:00.663Z,101960.56
2018-12-11T20:32:28.968Z,101972.45
2018-12-11T20:34:57.887Z,101972.20
2018-12-11T20:37:26.194Z,101976.45
2018-12-11T20:39:54.538Z,101974.81
2018-12-11T20:42:22.901Z,101976.41
2018-12-11T20:44:51.333Z,101974.54
2018-12-11T20:47:19.660Z,101978.73
2018-12-11T20:49:48.075Z,101984.25
2018-12-11T20:52:16.433Z,101988.10
2018-12-11T20:54:44.804Z,101978.78
2018-12-11T20:57:13.613Z,101981.89
2018-12-11T20:59:42.097Z,101993.80
2018-12-11T21:02:10.410Z,101995.41
2018-12-11T21:04:38.762Z,101999.36
2018-12-11T21:07:07.126Z,102003.08
2018-12-11T21:09:35.549Z,101995.21
2018-12-11T21:12:03.966Z,102006.25
2018-12-11T21:14:32.278Z,102008.23
2018-12-11T21:17:00.650Z,102008.42
2018-12-11T21:19:29.147Z,101999.23
2018-12-11T21:21:57.526Z,101997.11
2018-12-11T21:24:26.206Z,102005.84
2018-12-11T21:26:55.018Z,102008.16
2018-12-11T21:29:23.887Z,102013.32
2018-12-11T21:31:52.197Z,102012.72
2018-12-11T21:34:20.566Z,102013.16
2018-12-11T21:36:48.920Z,102015.85
2018-12-11T21:39:17.280Z,102017.17
2018-12-11T21:41:45.984Z,102018.83
2018-12-11T21:44:14.295Z,102023.88
2018-12-11T21:46:42.641Z,102030.65
2018-12-11T21:49:11.006Z,102031.88
2018-12-11T21:51:39.299Z,102034.89
2018-12-11T21:54:07.628Z,102025.91
2018-12-11T21:56:35.970Z,102032.56
2018-12-11T21:59:04.345Z,102034.35
2018-12-11T22:01:32.677Z,102034.20
2018-12-11T22:04:01.210Z,102037.28
2018-12-11T22:06:29.574Z,102035.15
2018-12-11T22:08:57.912Z,102041.62
2018-12-11T22:11:26.314Z,102038.88
2018-12-11T22:13:54.622Z,102044.84
2018-12-11T22:16:22.943Z,102051.73
2018-12-11T22:18:51.357Z,102050.82
2018-12-11T22:21:19.677Z,102048.13
2018-12-11T22:23:48.113Z,102046.69
2018-12-11T22:26:16.668Z,102053.24
2018-12-11T22:28:45.408Z,102057.22
2018-12-11T22:31:13.784Z,102048.98
2018-12-11T22:33:42.479Z,102047.49
2018-12-11T22:36:10.958Z,102050.38
2018-12-11T22:38:39.711Z,102051.84
2018-12-11T22:41:08.167Z,102053.50
2018-12-11T22:43:36.485Z,102055.14
2018-12-11T22:46:05.398Z,102053.53
2018-12-11T22:48:34.035Z,102065.66
2018-12-11T22:51:03.290Z,102064.88
2018-12-11T22:53:31.863Z,102058.70
2018-12-11T22:56:00.320Z,102060.30
2018-12-11T22:58:28.733Z,102058.99
2018-12-11T23:00:57.528Z,102056.38
2018-12-11T23:03:26.149Z,102062.29
2018-12-11T23:05:54.643Z,102065.89
2018-12-11T23:08:22.946Z,102065.77
2018-12-11T23:10:52.289Z,102071.07
2018-12-11T23:13:20.857Z,102067.30
2018-12-11T23:15:49.188Z,102064.59
2018-12-11T23:18:18.013Z,102072.20
2018-12-11T23:20:46.440Z,102070.20
2018-12-11T23:23:15.291Z,102077.56
2018-12-11T23:25:43.810Z,102078.84
2018-12-11T23:28:12.404Z,102082.06
2018-12-11T23:30:40.865Z,102082.59
2018-12-11T23:33:10.271Z,102084.61
2018-12-11T23:35:39.126Z,102086.51
2018-12-11T23:38:09.545Z,102083.25
2018-12-11T23:40:37.933Z,102089.55
2018-12-11T23:43:06.514Z,102089.00
2018-12-11T23:45:34.992Z,102087.63
2018-12-11T23:48:03.526Z,102090.00
2018-12-11T23:50:32.061Z,102087.23
2018-12-11T23:53:00.373Z,102093.00
2018-12-11T23:55:28.783Z,102088.50
2018-12-11T23:57:57.132Z,102089.70
